createdAt,value
2019-05-25T00:01:35.767Z,97.40
2019-05-25T00:04:04.541Z,97.80
2019-05-25T00:06:32.972Z,98.00
2019-05-25T00:09:01.430Z,98.20
2019-05-25T00:11:29.877Z,98.40
2019-05-25T00:13:58.432Z,98.60
2019-05-25T00:16:26.868Z,98.80
2019-05-25T00:18:55.465Z,99.10
2019-05-25T00:21:23.990Z,99.30
2019-05-25T00:23:52.431Z,99.50
2019-05-25T00:26:20.967Z,99.70
2019-05-25T00:28:49.461Z,99.90
2019-05-25T00:31:17.959Z,99.90
2019-05-25T00:33:46.400Z,99.90
2019-05-25T00:36:14.854Z,99.90
2019-05-25T00:38:43.497Z,99.90
2019-05-25T00:41:12.006Z,99.90
2019-05-25T00:43:40.454Z,99.90
2019-05-25T00:46:08.896Z,99.90
2019-05-25T00:48:37.353Z,99.90
2019-05-25T00:51:25.153Z,99.90
2019-05-25T00:53:53.666Z,99.90
2019-05-25T00:56:27.908Z,99.90
2019-05-25T00:58:56.418Z,99.90
2019-05-25T01:01:24.946Z,99.90
2019-05-25T01:03:53.391Z,99.90
2019-05-25T01:06:22.004Z,99.90
2019-05-25T01:08:50.466Z,99.90
2019-05-25T01:11:18.907Z,99.90
2019-05-25T01:13:47.364Z,99.90
2019-05-25T01:16:15.795Z,99.90
2019-05-25T01:18:44.238Z,99.90
2019-05-25T01:21:12.694Z,99.90
2019-05-25T01:23:41.127Z,99.90
2019-05-25T01:26:09.672Z,99.90
2019-05-25T01:28:38.112Z,99.90
2019-05-25T01:31:06.828Z,99.90
2019-05-25T01:33:35.270Z,99.90
2019-05-25T01:36:03.730Z,99.90
2019-05-25T01:38:32.216Z,99.90
2019-05-25T01:41:20.019Z,99.90
2019-05-25T01:43:48.473Z,99.90
2019-05-25T01:46:16.943Z,99.90
2019-05-25T01:48:45.438Z,99.90
2019-05-25T01:51:13.888Z,99.90
2019-05-25T01:53:42.333Z,99.90
2019-05-25T01:56:22.898Z,99.90
2019-05-25T01:58:51.326Z,99.90
2019-05-25T02:01:19.790Z,99.90
2019-05-25T02:03:48.306Z,99.90
2019-05-25T02:06:36.097Z,99.90
2019-05-25T02:09:07.096Z,99.90
2019-05-25T02:11:36.539Z,99.90
2019-05-25T02:14:24.324Z,99.90
2019-05-25T02:16:52.796Z,99.90
2019-05-25T02:19:21.768Z,99.90
2019-05-25T02:21:50.406Z,99.90
2019-05-25T02:24:18.915Z,99.90
2019-05-25T02:26:47.458Z,99.90
2019-05-25T02:29:15.928Z,99.90
2019-05-25T02:32:03.785Z,99.90
2019-05-25T02:34:32.388Z,99.90
2019-05-25T02:37:00.824Z,99.90
2019-05-25T02:39:29.291Z,99.90
2019-05-25T02:41:57.718Z,99.90
2019-05-25T02:44:34.004Z,99.90
2019-05-25T02:47:02.527Z,99.90
2019-05-25T02:49:50.325Z,99.90
2019-05-25T02:52:18.767Z,99.90
2019-05-25T02:54:48.210Z,99.90
2019-05-25T02:57:16.714Z,99.90
2019-05-25T02:59:45.155Z,99.90
2019-05-25T03:02:33.021Z,99.90
2019-05-25T03:05:01.646Z,99.90
2019-05-25T03:07:31.013Z,99.90
2019-05-25T03:10:00.897Z,99.90
2019-05-25T03:12:30.599Z,99.90
2019-05-25T03:14:59.058Z,99.90
2019-05-25T03:17:27.589Z,99.90
2019-05-25T03:19:56.035Z,99.90
2019-05-25T03:22:24.683Z,99.90
2019-05-25T03:24:53.211Z,99.90
2019-05-25T03:27:21.677Z,99.90
2019-05-25T03:29:51.098Z,99.90
2019-05-25T03:32:19.811Z,99.90
2019-05-25T03:34:48.260Z,99.90
2019-05-25T03:37:16.819Z,99.90
2019-05-25T03:39:45.292Z,99.90
2019-05-25T03:42:13.760Z,99.90
2019-05-25T03:44:42.191Z,99.90
2019-05-25T03:47:10.660Z,99.90
2019-05-25T03:49:58.432Z,99.90
2019-05-25T03:52:26.902Z,99.90
2019-05-25T03:54:55.473Z,99.90
2019-05-25T03:57:23.975Z,99.90
2019-05-25T03:59:52.488Z,99.90
2019-05-25T04:02:21.004Z,99.90
2019-05-25T04:04:50.440Z,99.90
2019-05-25T04:07:18.871Z,99.90
2019-05-25T04:09:47.329Z,99.90
2019-05-25T04:12:15.772Z,99.90
2019-05-25T04:14:44.228Z,99.90
2019-05-25T04:17:12.728Z,99.90
2019-05-25T04:19:41.175Z,99.90
2019-05-25T04:22:09.627Z,99.90
2019-05-25T04:24:38.152Z,99.90
2019-05-25T04:27:15.559Z,99.90
2019-05-25T04:29:44.103Z,99.90
2019-05-25T04:32:12.553Z,99.90
2019-05-25T04:34:40.999Z,99.90
2019-05-25T04:37:09.463Z,99.90
2019-05-25T04:39:37.919Z,99.90
2019-05-25T04:42:06.518Z,99.90
2019-05-25T04:44:34.947Z,99.90
2019-05-25T04:47:03.404Z,99.90
2019-05-25T04:49:31.841Z,99.90
2019-05-25T04:52:00.290Z,99.90
2019-05-25T04:54:28.733Z,99.90
2019-05-25T04:56:57.197Z,99.90
2019-05-25T04:59:25.644Z,99.90
2019-05-25T05:01:54.088Z,99.90
2019-05-25T05:04:23.520Z,99.90
2019-05-25T05:06:51.966Z,99.90
2019-05-25T05:09:20.492Z,99.90
2019-05-25T05:11:48.935Z,99.90
2019-05-25T05:14:18.368Z,99.90
2019-05-25T05:16:46.804Z,99.90
2019-05-25T05:19:15.255Z,99.90
2019-05-25T05:21:43.695Z,99.90
2019-05-25T05:24:12.308Z,99.90
2019-05-25T05:26:54.537Z,99.90
2019-05-25T05:29:11.268Z,99.90
2019-05-25T05:31:40.052Z,99.90
2019-05-25T05:34:08.734Z,99.90
2019-05-25T05:36:37.499Z,99.90
2019-05-25T05:39:08.235Z,99.90
2019-05-25T05:41:40.113Z,99.90
2019-05-25T05:44:08.824Z,99.90
2019-05-25T05:46:41.510Z,99.90
2019-05-25T05:49:10.765Z,99.90
2019-05-25T05:52:00.216Z,99.90
2019-05-25T05:54:30.033Z,99.90
2019-05-25T05:57:11.830Z,99.90
2019-05-25T05:59:28.999Z,99.90
2019-05-25T06:01:57.603Z,99.90
2019-05-25T06:04:26.193Z,99.90
2019-05-25T06:06:54.966Z,99.90
2019-05-25T06:09:23.513Z,99.90
2019-05-25T06:11:52.313Z,99.90
2019-05-25T06:14:21.030Z,99.90
2019-05-25T06:16:49.488Z,99.90
2019-05-25T06:19:37.370Z,99.90
2019-05-25T06:22:06.086Z,99.90
2019-05-25T06:24:34.655Z,99.90
2019-05-25T06:27:03.358Z,99.90
2019-05-25T06:29:32.021Z,99.90
2019-05-25T06:32:02.314Z,99.90
2019-05-25T06:34:33.672Z,99.90
2019-05-25T06:37:02.189Z,99.90
2019-05-25T06:39:30.707Z,99.90
2019-05-25T06:42:18.521Z,99.90
2019-05-25T06:44:46.980Z,99.90
2019-05-25T06:47:15.411Z,99.90
2019-05-25T06:49:43.920Z,99.90
2019-05-25T06:52:31.713Z,99.90
2019-05-25T06:55:00.184Z,99.90
2019-05-25T06:57:41.983Z,99.90
2019-05-25T06:59:58.852Z,99.90
2019-05-25T07:02:27.292Z,99.90
2019-05-25T07:04:55.852Z,99.90
2019-05-25T07:07:24.442Z,99.90
2019-05-25T07:09:52.970Z,99.90
2019-05-25T07:12:21.479Z,99.90
2019-05-25T07:14:50.277Z,99.90
2019-05-25T07:17:18.874Z,99.90
2019-05-25T07:19:47.315Z,99.90
2019-05-25T07:22:15.848Z,99.90
2019-05-25T07:24:44.283Z,99.90
2019-05-25T07:27:13.515Z,99.90
2019-05-25T07:29:42.053Z,99.90
2019-05-25T07:32:10.639Z,99.90
2019-05-25T07:34:39.083Z,99.90
2019-05-25T07:37:07.585Z,99.90
2019-05-25T07:39:36.191Z,99.90
2019-05-25T07:42:04.760Z,99.90
2019-05-25T07:44:52.825Z,99.90
2019-05-25T07:47:21.299Z,99.90
2019-05-25T07:49:49.744Z,99.90
2019-05-25T07:52:18.264Z,99.90
2019-05-25T07:54:46.725Z,99.90
2019-05-25T07:57:15.177Z,99.90
2019-05-25T07:59:43.662Z,99.90
2019-05-25T08:02:12.191Z,99.90
2019-05-25T08:04:40.649Z,99.90
2019-05-25T08:07:09.153Z,99.90
2019-05-25T08:09:38.667Z,99.90
2019-05-25T08:12:07.175Z,99.90
2019-05-25T08:14:35.641Z,99.90
2019-05-25T08:17:04.167Z,99.90
2019-05-25T08:19:32.804Z,99.90
2019-05-25T08:22:20.588Z,99.90
2019-05-25T08:24:49.067Z,99.90
2019-05-25T08:27:17.515Z,99.90
2019-05-25T08:29:45.996Z,99.90
2019-05-25T08:32:14.449Z,99.90
2019-05-25T08:34:42.903Z,99.90
2019-05-25T08:37:11.368Z,99.90
2019-05-25T08:39:39.832Z,99.90
2019-05-25T08:42:08.272Z,99.90
2019-05-25T08:44:56.124Z,99.90
2019-05-25T08:47:24.632Z,99.90
2019-05-25T08:49:54.091Z,99.90
2019-05-25T08:52:22.555Z,99.90
2019-05-25T08:54:50.996Z,99.90
2019-05-25T08:57:19.467Z,99.90
2019-05-25T08:59:47.931Z,99.90
2019-05-25T09:02:16.391Z,99.90
2019-05-25T09:04:44.897Z,99.90
2019-05-25T09:07:13.358Z,99.90
2019-05-25T09:10:01.137Z,99.90
2019-05-25T09:12:29.712Z,99.90
2019-05-25T09:14:58.172Z,99.90
2019-05-25T09:17:26.629Z,99.90
2019-05-25T09:19:55.068Z,99.90
2019-05-25T09:22:23.532Z,99.90
2019-05-25T09:24:52.000Z,99.90
2019-05-25T09:27:20.488Z,99.90
2019-05-25T09:29:48.929Z,99.90
2019-05-25T09:32:17.388Z,99.90
2019-05-25T09:34:45.971Z,99.90
2019-05-25T09:37:14.531Z,99.90
2019-05-25T09:39:42.981Z,99.90
2019-05-25T09:42:11.432Z,99.90
2019-05-25T09:44:39.890Z,99.90
2019-05-25T09:47:08.472Z,99.90
2019-05-25T09:49:37.002Z,99.90
2019-05-25T09:52:05.539Z,99.90
2019-05-25T09:54:34.056Z,99.90
2019-05-25T09:57:02.597Z,99.90
2019-05-25T09:59:31.246Z,99.90
2019-05-25T10:01:59.704Z,99.90
2019-05-25T10:04:29.380Z,99.90
2019-05-25T10:06:57.818Z,99.90
2019-05-25T10:09:45.639Z,99.90
2019-05-25T10:12:16.112Z,99.90
2019-05-25T10:14:44.358Z,99.90
2019-05-25T10:17:12.799Z,99.90
2019-05-25T10:19:41.382Z,99.90
2019-05-25T10:22:10.268Z,99.90
2019-05-25T10:24:38.725Z,99.90
2019-05-25T10:27:07.252Z,99.90
2019-05-25T10:29:37.516Z,99.90
2019-05-25T10:32:05.965Z,99.90
2019-05-25T10:34:34.606Z,99.90
2019-05-25T10:37:03.119Z,99.90
2019-05-25T10:39:50.917Z,99.90
2019-05-25T10:42:19.504Z,99.90
2019-05-25T10:44:48.120Z,99.90
2019-05-25T10:47:16.579Z,99.90
2019-05-25T10:49:45.025Z,99.90
2019-05-25T10:52:13.487Z,99.90
2019-05-25T10:54:41.938Z,99.90
2019-05-25T10:57:13.232Z,99.90
2019-05-25T10:59:52.647Z,99.90
2019-05-25T11:02:10.886Z,99.90
2019-05-25T11:04:39.327Z,99.90
2019-05-25T11:07:07.799Z,99.90
2019-05-25T11:09:36.316Z,99.90
2019-05-25T11:12:04.844Z,99.90
2019-05-25T11:14:33.309Z,99.90
2019-05-25T11:17:02.881Z,99.90
2019-05-25T11:19:31.336Z,99.90
2019-05-25T11:22:19.230Z,99.90
2019-05-25T11:24:47.688Z,99.90
2019-05-25T11:27:16.137Z,99.90
2019-05-25T11:29:44.597Z,99.90
2019-05-25T11:32:13.055Z,99.90
2019-05-25T11:34:41.601Z,99.90
2019-05-25T11:37:10.048Z,99.90
2019-05-25T11:39:38.528Z,99.90
2019-05-25T11:42:06.992Z,99.90
2019-05-25T11:44:35.454Z,99.90
2019-05-25T11:47:05.126Z,99.90
2019-05-25T11:49:33.606Z,99.90
2019-05-25T11:52:02.111Z,99.90
2019-05-25T11:54:30.584Z,99.90
2019-05-25T11:56:59.047Z,99.90
2019-05-25T11:59:27.599Z,99.90
2019-05-25T12:01:56.075Z,99.90
2019-05-25T12:04:24.534Z,99.90
2019-05-25T12:06:53.056Z,99.90
2019-05-25T12:09:21.497Z,99.90
2019-05-25T12:11:49.959Z,99.90
2019-05-25T12:14:18.420Z,99.90
2019-05-25T12:16:46.893Z,99.90
2019-05-25T12:19:15.351Z,99.90
2019-05-25T12:21:43.910Z,99.60
2019-05-25T12:24:12.416Z,99.20
2019-05-25T12:26:40.872Z,99.20
2019-05-25T12:29:09.321Z,99.20
2019-05-25T12:31:37.852Z,99.80
2019-05-25T12:34:06.422Z,99.90
2019-05-25T12:36:34.891Z,99.90
2019-05-25T12:39:04.822Z,99.90
2019-05-25T12:41:33.334Z,99.90
2019-05-25T12:44:01.868Z,99.60
2019-05-25T12:46:30.337Z,98.70
2019-05-25T12:48:58.883Z,98.60
2019-05-25T12:51:27.331Z,98.90
2019-05-25T12:53:55.814Z,98.30
2019-05-25T12:56:24.265Z,97.90
2019-05-25T12:58:52.729Z,98.00
2019-05-25T13:01:21.241Z,97.70
2019-05-25T13:03:49.687Z,96.10
2019-05-25T13:06:19.152Z,97.10
2019-05-25T13:08:47.608Z,97.70
2019-05-25T13:11:16.098Z,97.90
2019-05-25T13:13:44.607Z,97.40
2019-05-25T13:16:13.162Z,97.90
2019-05-25T13:18:42.144Z,97.80
2019-05-25T13:21:10.600Z,98.40
2019-05-25T13:23:39.045Z,98.00
2019-05-25T13:26:07.479Z,99.50
2019-05-25T13:28:55.275Z,97.50
2019-05-25T13:31:24.367Z,96.90
2019-05-25T13:33:52.805Z,96.50
2019-05-25T13:36:21.266Z,95.60
2019-05-25T13:38:49.788Z,94.30
2019-05-25T13:41:18.248Z,93.80
2019-05-25T13:44:06.046Z,92.30
2019-05-25T13:46:34.534Z,91.90
2019-05-25T13:49:02.978Z,93.10
2019-05-25T13:51:31.492Z,94.90
2019-05-25T13:53:59.955Z,92.40
2019-05-25T13:56:28.404Z,90.10
2019-05-25T13:58:56.931Z,90.90
2019-05-25T14:01:28.327Z,83.90
2019-05-25T14:03:55.933Z,85.90
2019-05-25T14:06:24.484Z,85.40
2019-05-25T14:08:52.935Z,85.30
2019-05-25T14:11:21.464Z,82.10
2019-05-25T14:13:49.920Z,79.00
2019-05-25T14:16:18.364Z,78.00
2019-05-25T14:18:46.847Z,76.70
2019-05-25T14:21:15.284Z,76.10
2019-05-25T14:23:47.539Z,79.90
2019-05-25T14:26:16.005Z,82.70
2019-05-25T14:28:44.443Z,85.30
2019-05-25T14:31:12.945Z,88.20
2019-05-25T14:33:41.444Z,90.40
2019-05-25T14:36:09.905Z,91.40
2019-05-25T14:38:38.420Z,92.40
2019-05-25T14:41:06.865Z,94.10
2019-05-25T14:43:35.319Z,94.30
2019-05-25T14:46:03.773Z,94.80
2019-05-25T14:48:32.315Z,95.10
2019-05-25T14:51:00.768Z,95.30
2019-05-25T14:53:29.299Z,95.60
2019-05-25T14:55:57.760Z,95.20
2019-05-25T14:58:26.284Z,95.40
2019-05-25T15:00:54.719Z,95.50
2019-05-25T15:03:23.172Z,96.30
2019-05-25T15:05:51.618Z,96.20
2019-05-25T15:08:20.082Z,96.10
2019-05-25T15:10:48.585Z,96.20
2019-05-25T15:13:17.034Z,95.90
2019-05-25T15:15:45.642Z,95.70
2019-05-25T15:18:14.094Z,95.90
2019-05-25T15:20:43.109Z,96.30
2019-05-25T15:23:11.556Z,96.60
2019-05-25T15:25:40.008Z,96.90
2019-05-25T15:28:08.480Z,97.10
2019-05-25T15:30:36.991Z,96.80
2019-05-25T15:33:05.526Z,96.60
2019-05-25T15:35:34.055Z,96.50
2019-05-25T15:38:02.584Z,96.70
2019-05-25T15:40:31.021Z,96.90
2019-05-25T15:42:59.647Z,97.10
2019-05-25T15:45:28.112Z,97.50
2019-05-25T15:47:56.618Z,97.60
2019-05-25T15:50:26.780Z,97.50
2019-05-25T15:52:56.707Z,97.70
2019-05-25T15:55:25.588Z,97.70
2019-05-25T15:57:54.028Z,97.80
2019-05-25T16:00:25.580Z,97.80
2019-05-25T16:02:54.112Z,97.80
2019-05-25T16:05:22.684Z,98.00
2019-05-25T16:07:52.676Z,98.40
2019-05-25T16:10:40.487Z,99.00
2019-05-25T16:13:08.919Z,99.20
2019-05-25T16:15:37.538Z,99.80
2019-05-25T16:18:06.057Z,99.70
2019-05-25T16:20:34.587Z,99.90
2019-05-25T16:23:03.031Z,99.40
2019-05-25T16:25:31.652Z,99.50
2019-05-25T16:28:00.110Z,99.80
2019-05-25T16:30:31.365Z,99.80
2019-05-25T16:33:14.998Z,99.90
2019-05-25T16:35:29.227Z,99.90
2019-05-25T16:37:57.911Z,99.90
2019-05-25T16:40:27.610Z,99.90
2019-05-25T16:42:56.399Z,99.90
2019-05-25T16:45:24.888Z,99.90
2019-05-25T16:47:53.483Z,99.90
2019-05-25T16:50:22.695Z,99.90
2019-05-25T16:53:10.532Z,99.90
2019-05-25T16:55:39.231Z,99.90
2019-05-25T16:58:07.994Z,99.90
2019-05-25T17:00:36.571Z,99.90
2019-05-25T17:03:05.111Z,99.90
2019-05-25T17:05:33.561Z,99.90
2019-05-25T17:08:02.014Z,99.90
2019-05-25T17:10:30.524Z,99.90
2019-05-25T17:12:59.078Z,99.90
2019-05-25T17:15:27.593Z,99.90
2019-05-25T17:17:56.127Z,99.90
2019-05-25T17:20:24.779Z,99.90
2019-05-25T17:22:53.223Z,99.90
2019-05-25T17:25:21.948Z,99.90
2019-05-25T17:27:50.454Z,99.90
2019-05-25T17:30:21.996Z,99.90
2019-05-25T17:32:50.636Z,99.90
2019-05-25T17:35:19.384Z,99.90
2019-05-25T17:37:47.924Z,99.90
2019-05-25T17:40:16.507Z,99.90
2019-05-25T17:42:44.962Z,99.90
2019-05-25T17:45:13.945Z,99.90
2019-05-25T17:47:42.400Z,99.90
2019-05-25T17:50:11.032Z,99.90
2019-05-25T17:52:39.580Z,99.90
2019-05-25T17:55:08.707Z,99.90
2019-05-25T17:57:37.204Z,99.90
2019-05-25T18:00:07.387Z,99.90
2019-05-25T18:02:35.900Z,99.90
2019-05-25T18:05:06.696Z,99.90
2019-05-25T18:07:35.447Z,99.90
2019-05-25T18:10:06.898Z,99.90
2019-05-25T18:12:54.705Z,99.90
2019-05-25T18:15:23.336Z,99.90
2019-05-25T18:17:51.817Z,99.90
2019-05-25T18:20:20.564Z,99.90
2019-05-25T18:22:49.814Z,99.90
2019-05-25T18:25:18.883Z,99.90
2019-05-25T18:27:47.512Z,99.90
2019-05-25T18:30:16.712Z,99.90
2019-05-25T18:32:45.233Z,99.90
2019-05-25T18:35:13.780Z,99.90
2019-05-25T18:37:42.312Z,99.90
2019-05-25T18:40:11.008Z,99.90
2019-05-25T18:42:39.485Z,99.90
2019-05-25T18:45:09.170Z,99.90
2019-05-25T18:47:38.701Z,99.90
2019-05-25T18:50:09.265Z,99.90
2019-05-25T18:52:37.912Z,99.90
2019-05-25T18:55:07.831Z,99.90
2019-05-25T18:57:36.355Z,99.90
2019-05-25T19:00:07.312Z,99.90
2019-05-25T19:02:35.854Z,99.90
2019-05-25T19:05:05.627Z,99.90
2019-05-25T19:07:34.086Z,99.90
2019-05-25T19:10:03.010Z,99.90
2019-05-25T19:12:31.465Z,99.90
2019-05-25T19:14:59.922Z,99.90
2019-05-25T19:17:28.391Z,99.90
2019-05-25T19:19:56.859Z,99.90
2019-05-25T19:22:25.311Z,99.90
2019-05-25T19:24:54.808Z,99.90
2019-05-25T19:27:24.304Z,99.90
2019-05-25T19:29:52.757Z,99.90
2019-05-25T19:32:21.292Z,99.90
2019-05-25T19:34:59.002Z,99.90
2019-05-25T19:37:19.984Z,99.90
2019-05-25T19:39:48.503Z,99.90
2019-05-25T19:42:16.972Z,99.90
2019-05-25T19:44:45.407Z,99.90
2019-05-25T19:47:13.961Z,99.90
2019-05-25T19:49:42.436Z,99.90
2019-05-25T19:52:10.900Z,99.90
2019-05-25T19:54:39.339Z,99.90
2019-05-25T19:57:07.868Z,99.90
2019-05-25T20:22:58.858Z,99.90
2019-05-25T20:25:27.348Z,99.90
2019-05-25T20:27:55.876Z,99.90
2019-05-25T20:30:24.410Z,99.90
2019-05-25T20:32:52.940Z,99.90
2019-05-25T20:35:32.265Z,99.90
2019-05-25T20:37:51.557Z,99.90
2019-05-25T20:40:20.089Z,99.90
2019-05-25T20:43:07.881Z,99.90
2019-05-25T20:45:36.331Z,99.90
2019-05-25T20:48:05.042Z,99.90
2019-05-25T20:50:33.591Z,99.90
2019-05-25T20:53:02.024Z,99.90
2019-05-25T20:55:30.485Z,99.90
2019-05-25T20:57:58.925Z,99.90
2019-05-25T21:00:27.541Z,99.90
2019-05-25T21:03:05.847Z,99.90
2019-05-25T21:05:26.147Z,99.90
2019-05-25T21:07:54.620Z,99.90
2019-05-25T21:10:23.209Z,99.90
2019-05-25T21:12:51.671Z,99.90
2019-05-25T21:15:20.187Z,99.90
2019-05-25T21:17:48.685Z,99.90
2019-05-25T21:20:17.920Z,99.90
2019-05-25T21:23:05.709Z,99.90
2019-05-25T21:25:34.153Z,99.90
2019-05-25T21:28:02.616Z,99.90
2019-05-25T21:30:31.130Z,99.90
2019-05-25T21:32:59.593Z,99.90
2019-05-25T21:35:28.029Z,99.90
2019-05-25T21:37:56.477Z,99.90
2019-05-25T21:40:24.921Z,99.90
2019-05-25T21:42:53.380Z,99.90
2019-05-25T21:45:22.056Z,99.90
2019-05-25T21:47:50.516Z,99.90
2019-05-25T21:50:19.411Z,99.90
2019-05-25T21:52:47.944Z,99.90
2019-05-25T21:55:16.543Z,99.90
2019-05-25T21:57:45.021Z,99.90
2019-05-25T22:00:15.732Z,99.90
2019-05-25T22:02:44.465Z,99.90
2019-05-25T22:05:13.152Z,99.90
2019-05-25T22:07:41.728Z,99.90
2019-05-25T22:10:10.732Z,99.90
2019-05-25T22:12:40.346Z,99.90
2019-05-25T22:15:10.411Z,99.90
2019-05-25T22:17:39.559Z,99.90
2019-05-25T22:20:09.732Z,99.90
2019-05-25T22:22:38.237Z,99.90
2019-05-25T22:25:07.129Z,99.90
2019-05-25T22:27:35.820Z,99.90
2019-05-25T22:30:06.537Z,99.90
2019-05-25T22:32:35.017Z,99.90
2019-05-25T22:35:04.493Z,99.90
2019-05-25T22:37:32.952Z,99.90
2019-05-25T22:40:01.381Z,99.90
2019-05-25T22:42:30.141Z,99.90
2019-05-25T22:44:58.940Z,99.90
2019-05-25T22:47:27.453Z,99.90
2019-05-25T22:49:55.910Z,99.90
2019-05-25T22:52:24.511Z,99.90
2019-05-25T22:54:52.942Z,99.90
2019-05-25T22:57:21.409Z,99.90
2019-05-25T22:59:49.853Z,99.90
2019-05-25T23:02:18.375Z,99.90
2019-05-25T23:04:46.812Z,99.90
2019-05-25T23:07:15.298Z,99.90
2019-05-25T23:09:43.870Z,99.90
2019-05-25T23:12:12.375Z,99.90
2019-05-25T23:14:40.918Z,99.90
2019-05-25T23:17:09.478Z,99.90
2019-05-25T23:19:37.938Z,99.90
2019-05-25T23:22:06.441Z,99.90
2019-05-25T23:24:34.891Z,99.90
2019-05-25T23:27:03.401Z,99.90
2019-05-25T23:29:31.851Z,99.90
2019-05-25T23:32:00.289Z,99.90
2019-05-25T23:34:28.751Z,99.90
2019-05-25T23:37:11.690Z,99.90
2019-05-25T23:39:27.439Z,99.90
2019-05-25T23:41:56.861Z,99.90
2019-05-25T23:44:25.323Z,99.90
2019-05-25T23:46:53.820Z,99.90
2019-05-25T23:49:22.262Z,99.90
2019-05-25T23:51:50.715Z,99.90
2019-05-25T23:54:20.088Z,99.90
2019-05-25T23:56:48.536Z,99.90
2019-05-25T23:59:16.974Z,99.90
